0NC0 weather

Wayne Memorial Hospital Inc. Heliport
Goldsboro, North Carolina, United States

Public forecast

Using degrees Fahrenheit for public forecast. Weather courtesy of forecast.io.

Closest aviation weather report (METAR) to Wayne Memorial Hospital Inc. Heliport

Closest report is Seymour Johnson Air Force Base, 3.6 nm (6.7 km) S. Retrieved 2019/12/13 03:56 UTC (57 minutes ago):

KGSB 130356Z AUTO 03004KT 10SM CLR 03/M01 A3045 RMK AO2 SLP315 T00281012

Closest aviation forecast (TAF) to Wayne Memorial Hospital Inc. Heliport

Forecast is more than 6 hours old.

Closest forecast is Seymour Johnson Air Force Base, 3.6 nm (6.7 km) S. Retrieved 2019/12/12 21:15 UTC (8 hours ago):

TAF TAF KGSB 122100Z 1221/1403 06009KT 9999 BKN035 QNH3042INS BECMG 1304/1305 06006KT 9999 BKN015 OVC060 QNH3032INS BECMG 1308/1309 06006KT 9999 VCSH BKN010 OVC050 QNH3026INS BECMG 1314/1315 08012KT 8000 -SHRA OVC008 QNH3011INS BECMG 1317/1318 07010G15KT 6000 -SHRA OVC005 QNH3003INS BECMG 1320/1321 09012KT 4800 SHRA OVC004 WS015/17035KT QNH2985INS TX12/1320Z TN02/1310Z